Time;durP1;ratioP1;P1;durP2;ratioP2;P2;SDS_P1;SDS_P2;PMS_P1;PMS_P2;Temp;Humidity;BMP_temperature;BMP_pressure;BME280_temperature;BME280_humidity;BME280_pressure;Samples;Min_cycle;Max_cycle;Signal;HPM_P1;HPM_P2
2022/06/25 00:03:54;;;;;;;5.97;3.10;;;17.70;99.90;;;;;;10354928;28;20318;-68
2022/06/25 00:08:54;;;;;;;6.17;2.90;;;17.70;99.90;;;;;;10345255;28;20355;-67
2022/06/25 00:13:55;;;;;;;5.13;3.30;;;17.60;99.90;;;;;;10329354;28;20228;-67
2022/06/25 00:18:56;;;;;;;4.87;2.90;;;17.60;99.90;;;;;;10346550;28;20226;-67
2022/06/25 00:23:56;;;;;;;5.07;2.93;;;17.50;99.90;;;;;;10351588;28;20315;-67
2022/06/25 00:28:57;;;;;;;9.10;3.27;;;17.50;99.90;;;;;;10317621;28;20220;-67
2022/06/25 00:33:57;;;;;;;5.50;3.53;;;17.40;99.90;;;;;;10353411;28;20661;-67
2022/06/25 00:38:58;;;;;;;3.63;3.17;;;17.40;99.90;;;;;;10342558;28;20639;-67
2022/06/25 00:44:09;;;;;;;3.87;3.47;;;17.40;99.90;;;;;;10345413;28;20242;-68
2022/06/25 00:49:10;;;;;;;7.53;3.87;;;17.40;99.90;;;;;;10337971;28;20231;-67
2022/06/25 00:54:11;;;;;;;4.90;4.10;;;17.30;99.90;;;;;;10329626;28;20734;-68
2022/06/25 00:59:14;;;;;;;8.87;4.70;;;17.30;99.90;;;;;;10341482;28;20273;-67
2022/06/25 01:04:14;;;;;;;8.53;4.73;;;17.30;99.90;;;;;;10349806;28;20228;-68
2022/06/25 01:09:15;;;;;;;7.13;4.43;;;17.30;99.90;;;;;;10319308;28;20222;-68
2022/06/25 01:14:16;;;;;;;5.27;4.37;;;17.30;99.90;;;;;;10340025;28;20687;-67
2022/06/25 01:19:17;;;;;;;7.63;4.90;;;17.30;99.90;;;;;;10337606;28;20229;-67
2022/06/25 01:24:17;;;;;;;7.53;4.63;;;17.30;99.90;;;;;;10345128;28;20645;-68
2022/06/25 01:29:21;;;;;;;9.33;4.53;;;17.20;99.90;;;;;;10331141;28;20319;-68
2022/06/25 01:34:21;;;;;;;8.23;4.53;;;17.20;99.90;;;;;;10337198;28;20230;-67
2022/06/25 01:39:22;;;;;;;5.57;4.77;;;17.20;99.90;;;;;;10339776;28;20225;-68
2022/06/25 01:44:23;;;;;;;9.83;5.10;;;17.10;99.90;;;;;;10339966;28;20322;-69
2022/06/25 01:49:24;;;;;;;5.87;4.93;;;17.10;99.90;;;;;;10343039;28;20258;-67
2022/06/25 01:54:24;;;;;;;6.90;5.23;;;17.10;99.90;;;;;;10341815;28;20230;-67
2022/06/25 01:59:25;;;;;;;10.57;5.17;;;17.10;99.90;;;;;;10337180;28;20365;-67
2022/06/25 02:04:28;;;;;;;5.90;5.30;;;17.10;99.90;;;;;;10329429;28;20236;-67
2022/06/25 02:09:29;;;;;;;7.17;5.00;;;17.10;99.90;;;;;;10343250;28;20219;-67
2022/06/25 02:14:29;;;;;;;5.17;4.77;;;17.10;99.90;;;;;;10349696;28;20239;-68
2022/06/25 02:19:32;;;;;;;7.53;5.53;;;17.00;99.90;;;;;;10334914;28;20230;-67
2022/06/25 02:24:32;;;;;;;7.47;5.90;;;17.00;99.90;;;;;;10350885;28;20239;-68
2022/06/25 02:29:33;;;;;;;7.77;5.77;;;17.00;99.90;;;;;;10334796;28;20770;-68
2022/06/25 02:34:33;;;;;;;7.40;5.40;;;16.90;99.90;;;;;;10332592;28;20226;-68
2022/06/25 02:39:34;;;;;;;7.27;5.93;;;17.00;99.90;;;;;;10340631;28;20756;-68
2022/06/25 02:44:35;;;;;;;6.00;5.43;;;16.90;99.90;;;;;;10345697;28;20572;-68
2022/06/25 02:49:35;;;;;;;6.93;5.27;;;16.90;99.90;;;;;;10343226;28;20289;-67
2022/06/25 02:54:36;;;;;;;7.40;5.87;;;16.90;99.90;;;;;;10344831;28;20305;-68
2022/06/25 02:59:37;;;;;;;6.87;6.17;;;16.80;99.90;;;;;;10331648;28;20229;-68
2022/06/25 03:04:37;;;;;;;6.93;5.77;;;16.90;99.90;;;;;;10343759;28;20234;-67
2022/06/25 03:09:38;;;;;;;7.13;5.77;;;16.80;99.90;;;;;;10350020;28;20677;-67
2022/06/25 03:14:42;;;;;;;6.70;6.03;;;16.80;99.90;;;;;;10338474;28;20827;-68
2022/06/25 03:19:42;;;;;;;8.83;6.40;;;16.80;99.90;;;;;;10342245;28;20235;-67
2022/06/25 03:24:43;;;;;;;7.23;6.37;;;16.80;99.90;;;;;;10354208;28;20219;-67
2022/06/25 03:29:44;;;;;;;9.03;6.10;;;16.80;99.90;;;;;;10335042;28;20243;-67
2022/06/25 03:34:44;;;;;;;10.37;6.53;;;16.80;99.90;;;;;;10352506;28;20219;-68
2022/06/25 03:39:45;;;;;;;7.67;6.30;;;16.80;99.90;;;;;;10347461;28;20753;-69
2022/06/25 03:44:45;;;;;;;11.13;6.33;;;16.80;99.90;;;;;;10340798;28;20236;-69
2022/06/25 03:49:47;;;;;;;8.63;6.87;;;16.80;99.90;;;;;;10343824;28;20222;-68
2022/06/25 03:54:47;;;;;;;6.53;5.93;;;16.90;99.90;;;;;;10353687;28;20269;-68
2022/06/25 03:59:48;;;;;;;10.13;6.30;;;17.00;99.90;;;;;;10340187;28;20220;-68
2022/06/25 04:04:48;;;;;;;8.60;6.20;;;17.10;99.90;;;;;;10340632;28;20235;-68
2022/06/25 04:09:49;;;;;;;6.43;5.83;;;17.10;99.90;;;;;;10356544;28;20307;-67
2022/06/25 04:14:49;;;;;;;12.00;5.90;;;17.30;99.90;;;;;;10348300;28;20223;-68
2022/06/25 04:19:50;;;;;;;6.67;5.23;;;17.40;99.90;;;;;;10338568;28;20312;-68
2022/06/25 04:24:53;;;;;;;5.60;5.10;;;17.60;99.90;;;;;;10328349;28;20230;-68
2022/06/25 04:29:54;;;;;;;6.67;4.80;;;17.70;99.90;;;;;;10343368;28;20237;-68
2022/06/25 04:34:55;;;;;;;9.30;5.10;;;17.90;99.90;;;;;;10348866;28;20742;-67
2022/06/25 04:39:55;;;;;;;5.03;4.00;;;18.20;99.90;;;;;;10346925;28;20323;-67
2022/06/25 04:44:56;;;;;;;8.33;4.27;;;18.50;99.90;;;;;;10326370;28;20227;-68
2022/06/25 04:50:00;;;;;;;7.07;3.77;;;18.70;99.90;;;;;;10347815;28;20227;-67
2022/06/25 04:55:00;;;;;;;5.50;3.83;;;18.70;99.90;;;;;;10344943;28;20270;-68
2022/06/25 05:00:01;;;;;;;4.27;3.57;;;18.80;99.90;;;;;;10331014;28;20264;-68
2022/06/25 05:05:06;;;;;;;7.40;4.07;;;19.00;99.90;;;;;;10318887;28;20230;-68
2022/06/25 05:10:07;;;;;;;4.03;2.80;;;20.00;99.90;;;;;;10351427;28;20225;-68
2022/06/25 05:15:08;;;;;;;4.70;2.80;;;22.80;99.90;;;;;;10317638;28;20185;-68
2022/06/25 05:20:12;;;;;;;7.13;2.43;;;25.10;99.90;;;;;;10345583;28;20231;-68
2022/06/25 05:25:12;;;;;;;4.37;2.80;;;25.30;99.90;;;;;;10328827;28;20256;-67
2022/06/25 05:30:13;;;;;;;3.83;2.77;;;24.60;99.90;;;;;;10353423;28;20676;-67
2022/06/25 05:35:14;;;;;;;9.33;3.00;;;23.50;99.90;;;;;;10344237;28;20677;-67
2022/06/25 05:40:14;;;;;;;4.57;2.17;;;22.80;99.90;;;;;;10352303;28;20221;-68
2022/06/25 05:45:15;;;;;;;6.30;2.30;;;23.10;99.90;;;;;;10338619;28;20213;-66
2022/06/25 05:50:19;;;;;;;3.27;2.07;;;24.60;99.90;;;;;;10320957;28;20215;-68
2022/06/25 05:55:19;;;;;;;3.47;2.20;;;27.40;99.90;;;;;;10331011;28;20179;-68
2022/06/25 06:00:20;;;;;;;4.93;1.70;;;29.70;99.90;;;;;;10343705;28;20182;-68
2022/06/25 06:05:21;;;;;;;2.90;1.70;;;30.10;95.30;;;;;;10334034;28;20317;-68
2022/06/25 06:10:21;;;;;;;4.47;1.80;;;31.40;90.40;;;;;;10342318;28;20281;-68
2022/06/25 06:15:22;;;;;;;3.17;2.00;;;31.50;83.20;;;;;;10321024;28;20189;-67
2022/06/25 06:20:22;;;;;;;4.13;1.83;;;29.80;85.40;;;;;;10345318;28;20200;-68
2022/06/25 06:25:23;;;;;;;3.30;1.80;;;28.20;92.50;;;;;;10327919;28;20216;-68
2022/06/25 06:30:24;;;;;;;3.43;1.80;;;30.30;90.80;;;;;;10335879;28;20317;-69
2022/06/25 06:35:24;;;;;;;4.03;1.90;;;30.90;82.40;;;;;;10334322;28;20229;-68
2022/06/25 06:40:25;;;;;;;3.93;2.00;;;28.70;86.40;;;;;;10336828;28;20225;-67
2022/06/25 06:45:26;;;;;;;5.63;1.70;;;27.30;93.00;;;;;;10314907;28;20583;-67
2022/06/25 06:50:27;;;;;;;4.00;1.80;;;26.70;94.60;;;;;;10316253;28;20651;-68
2022/06/25 06:55:28;;;;;;;2.57;1.90;;;26.60;96.90;;;;;;10331835;28;20342;-68
2022/06/25 07:00:28;;;;;;;4.30;1.80;;;26.70;96.00;;;;;;10335946;28;20241;-69
2022/06/25 07:05:29;;;;;;;5.37;1.70;;;28.00;94.90;;;;;;10317371;28;20527;-68
2022/06/25 07:10:30;;;;;;;7.37;1.83;;;31.00;87.60;;;;;;10320839;28;20226;-70
2022/06/25 07:15:30;;;;;;;3.93;1.60;;;33.70;74.00;;;;;;10333208;28;20222;-68
2022/06/25 07:20:31;;;;;;;5.47;1.70;;;35.70;60.00;;;;;;10354389;28;20680;-67
2022/06/25 07:25:32;;;;;;;4.70;1.57;;;35.60;54.90;;;;;;10333665;28;20238;-67
2022/06/25 07:30:32;;;;;;;6.40;2.73;;;32.70;61.60;;;;;;10340756;28;20245;-67
2022/06/25 07:35:33;;;;;;;3.77;1.80;;;29.90;70.80;;;;;;10337260;28;20218;-68
2022/06/25 07:40:33;;;;;;;3.30;1.67;;;28.00;79.90;;;;;;10348858;28;20218;-68
2022/06/25 07:45:34;;;;;;;2.33;1.93;;;27.90;84.60;;;;;;10346364;28;20308;-68
2022/06/25 07:55:54;;;;;;;1.97;1.60;;;31.10;74.60;;;;;;10325597;28;20237;-69
2022/06/25 08:00:54;;;;;;;2.10;1.17;;;35.10;59.00;;;;;;10334760;28;20312;-68
2022/06/25 08:05:56;;;;;;;4.00;1.40;;;37.10;53.60;;;;;;10333246;28;20298;-69
2022/06/25 08:10:57;;;;;;;5.73;1.87;;;38.30;48.80;;;;;;10348461;28;20228;-70
2022/06/25 08:15:58;;;;;;;2.53;1.70;;;39.40;46.00;;;;;;10341601;28;20363;-69
2022/06/25 08:20:59;;;;;;;6.13;1.90;;;38.50;45.00;;;;;;10334917;28;20229;-69
2022/06/25 08:26:00;;;;;;;7.23;1.83;;;36.70;48.00;;;;;;10331253;28;20230;-69
2022/06/25 08:31:00;;;;;;;3.20;1.77;;;37.20;47.80;;;;;;10345279;28;20238;-69
2022/06/25 08:36:01;;;;;;;6.07;1.50;;;38.30;45.30;;;;;;10332034;28;20227;-68
2022/06/25 08:41:02;;;;;;;3.07;1.70;;;37.70;44.90;;;;;;10341373;28;20288;-70
2022/06/25 08:46:06;;;;;;;3.80;1.90;;;38.10;44.70;;;;;;10330475;28;20758;-69
2022/06/25 08:51:08;;;;;;;5.50;1.73;;;39.70;42.00;;;;;;10346710;28;20250;-70
2022/06/25 08:56:09;;;;;;;3.07;1.63;;;40.90;40.40;;;;;;10346805;28;20222;-70
2022/06/25 09:01:09;;;;;;;4.07;1.60;;;41.90;37.30;;;;;;10340692;28;20213;-69
2022/06/25 09:06:15;;;;;;;5.17;2.00;;;42.20;36.70;;;;;;10345666;28;20641;-70
2022/06/25 09:11:18;;;;;;;3.30;1.73;;;41.20;37.30;;;;;;10352392;28;20245;-69
2022/06/25 09:16:24;;;;;;;1.77;1.20;;;41.60;36.80;;;;;;10338569;28;20233;-70
2022/06/25 09:21:24;;;;;;;5.03;1.70;;;42.90;36.00;;;;;;10343801;28;20227;-70
2022/06/25 09:26:25;;;;;;;2.47;2.25;;;43.70;34.50;;;;;;10334894;28;20670;-70
2022/06/25 09:31:36;;;;;;;4.07;2.08;;;44.40;33.00;;;;;;10320753;28;20229;-70
2022/06/25 09:36:37;;;;;;;4.07;1.88;;;45.00;32.30;;;;;;10339647;28;20677;-70
2022/06/25 09:41:57;;;;;;;2.17;1.67;;;44.90;31.40;;;;;;10336352;28;20220;-71
2022/06/25 09:46:59;;;;;;;3.30;1.60;;;44.80;30.60;;;;;;10339616;28;20229;-71
2022/06/25 09:52:03;;;;;;;4.93;1.40;;;42.70;32.90;;;;;;10321365;28;20262;-70
2022/06/25 09:57:04;;;;;;;2.33;1.58;;;44.10;32.40;;;;;;10338285;28;20218;-69
2022/06/25 10:02:05;;;;;;;2.63;1.55;;;45.10;30.20;;;;;;10334960;28;20649;-69
2022/06/25 10:07:09;;;;;;;4.57;1.80;;;46.00;28.60;;;;;;10325462;28;20663;-70
2022/06/25 10:12:09;;;;;;;3.70;1.47;;;44.80;29.60;;;;;;10334109;28;20221;-69
2022/06/25 10:17:11;;;;;;;3.40;1.20;;;42.00;32.60;;;;;;10336282;28;20562;-70
2022/06/25 10:22:12;;;;;;;4.07;1.70;;;42.70;32.50;;;;;;10331526;28;20570;-70
2022/06/25 10:27:13;;;;;;;3.07;1.60;;;42.60;31.00;;;;;;10322870;28;20858;-68
2022/06/25 10:32:16;;;;;;;1.53;1.37;;;42.80;31.60;;;;;;10330492;28;20304;-73
2022/06/25 10:37:17;;;;;;;3.20;1.47;;;42.70;30.80;;;;;;10347551;28;20249;-70
2022/06/25 10:47:57;;;;;;;1.73;1.33;;;42.70;30.30;;;;;;10336955;28;20229;-69
2022/06/25 10:53:05;;;;;;;1.50;1.40;;;41.90;32.20;;;;;;10331255;28;20276;-69
2022/06/25 10:58:13;;;;;;;2.63;1.60;;;43.10;31.10;;;;;;10325363;28;20215;-69
2022/06/25 11:03:18;;;;;;;3.87;1.50;;;44.20;29.90;;;;;;10327778;28;20228;-68
2022/06/25 11:08:18;;;;;;;3.83;1.50;;;43.90;29.90;;;;;;10344697;28;20275;-70
2022/06/25 11:13:24;;;;;;;2.70;1.20;;;42.80;29.80;;;;;;10352930;28;20692;-69
2022/06/25 11:18:25;;;;;;;3.03;1.20;;;40.80;32.70;;;;;;10337526;28;20230;-68
2022/06/25 11:23:29;;;;;;;1.53;1.00;;;39.20;35.20;;;;;;10350014;28;20219;-68
2022/06/25 11:28:48;;;;;;;3.23;1.20;;;38.10;35.80;;;;;;10348419;28;20245;-67
2022/06/25 11:33:51;;;;;;;1.90;1.20;;;37.20;37.60;;;;;;10335878;28;20222;-69
2022/06/25 11:38:54;;;;;;;2.13;1.00;;;39.60;34.10;;;;;;10335570;28;20305;-69
2022/06/25 11:43:55;;;;;;;3.57;1.30;;;37.70;35.80;;;;;;10364066;28;20224;-69
2022/06/25 11:48:57;;;;;;;1.93;1.60;;;34.00;41.70;;;;;;10333936;28;20222;-69
2022/06/25 11:54:04;;;;;;;3.47;1.67;;;32.30;45.60;;;;;;10336036;28;20217;-67
2022/06/25 11:59:05;;;;;;;2.97;1.63;;;31.70;46.10;;;;;;10352048;28;20313;-68
2022/06/25 12:04:06;;;;;;;5.30;1.50;;;31.60;47.20;;;;;;10328856;28;20317;-67
2022/06/25 12:09:06;;;;;;;2.23;1.57;;;31.70;46.70;;;;;;10329362;28;21124;-69
2022/06/25 12:14:07;;;;;;;1.97;1.30;;;31.70;48.40;;;;;;10339976;28;20228;-67
2022/06/25 12:19:07;;;;;;;1.37;1.27;;;32.10;46.30;;;;;;10336278;28;20229;-69
2022/06/25 12:24:12;;;;;;;2.13;1.10;;;31.90;46.90;;;;;;10348356;28;20316;-67
2022/06/25 12:29:19;;;;;;;1.53;1.10;;;31.90;48.00;;;;;;10341352;28;20355;-68
2022/06/25 12:34:19;;;;;;;3.47;1.30;;;32.00;47.70;;;;;;10344271;28;20256;-68
2022/06/25 12:39:32;;;;;;;1.77;1.40;;;31.90;46.90;;;;;;10348180;28;20315;-68
2022/06/25 12:44:35;;;;;;;7.57;1.57;;;31.70;47.40;;;;;;10339896;28;20706;-69
2022/06/25 12:49:46;;;;;;;3.50;1.37;;;31.60;48.20;;;;;;10341324;28;20237;-68
2022/06/25 12:54:52;;;;;;;1.90;1.77;;;31.30;47.40;;;;;;10354034;28;20236;-67
2022/06/25 12:59:53;;;;;;;1.27;1.17;;;31.20;49.10;;;;;;10347920;28;20228;-68
2022/06/25 13:04:54;;;;;;;2.77;1.27;;;31.10;47.50;;;;;;10335840;28;20229;-67
2022/06/25 13:09:54;;;;;;;1.87;1.20;;;31.40;48.70;;;;;;10352055;28;20225;-68
2022/06/25 13:14:55;;;;;;;5.77;1.10;;;31.60;47.80;;;;;;10330305;28;20222;-68
2022/06/25 13:19:59;;;;;;;2.20;1.30;;;31.70;47.00;;;;;;10346612;28;20221;-67
2022/06/25 13:25:01;;;;;;;2.83;1.20;;;31.30;47.60;;;;;;10349205;28;20222;-67
2022/06/25 13:30:02;;;;;;;4.63;1.30;;;30.80;47.90;;;;;;10339457;28;20265;-69
2022/06/25 13:35:05;;;;;;;3.40;1.63;;;30.30;48.80;;;;;;10338411;28;20242;-67
2022/06/25 13:40:07;;;;;;;1.77;1.40;;;30.00;49.50;;;;;;10337264;28;20544;-68
2022/06/25 13:45:10;;;;;;;2.60;1.20;;;29.90;49.50;;;;;;10338444;28;20236;-68
2022/06/25 13:50:11;;;;;;;1.53;1.10;;;30.20;49.30;;;;;;10349020;28;20206;-68
2022/06/25 13:55:12;;;;;;;2.90;1.17;;;30.70;47.30;;;;;;10344517;28;20186;-69
2022/06/25 14:00:13;;;;;;;2.10;1.13;;;30.80;46.90;;;;;;10323246;28;20204;-68
2022/06/25 14:05:14;;;;;;;1.20;0.90;;;30.70;45.90;;;;;;10349196;28;20218;-67
2022/06/25 14:10:16;;;;;;;2.20;0.93;;;30.60;46.00;;;;;;10326564;28;20193;-67
2022/06/25 14:15:16;;;;;;;3.47;1.20;;;30.30;46.40;;;;;;10329297;28;20268;-68
2022/06/25 14:20:17;;;;;;;3.80;1.13;;;29.40;47.30;;;;;;10331699;28;20803;-69
2022/06/25 14:25:21;;;;;;;2.90;1.50;;;29.00;50.70;;;;;;10343750;28;20409;-68
2022/06/25 14:30:22;;;;;;;1.20;1.10;;;28.90;50.70;;;;;;10340793;28;20249;-68
2022/06/25 14:35:23;;;;;;;1.10;1.00;;;29.00;50.00;;;;;;10332469;28;20187;-68
2022/06/25 14:45:43;;;;;;;1.70;0.90;;;29.40;48.60;;;;;;10351546;28;20308;-68
2022/06/25 14:50:44;;;;;;;4.87;0.87;;;29.10;48.60;;;;;;10356882;28;20783;-69
2022/06/25 14:55:44;;;;;;;1.57;0.93;;;29.00;48.90;;;;;;10333501;28;20221;-67
2022/06/25 15:00:45;;;;;;;1.13;0.90;;;29.20;48.60;;;;;;10358224;28;20231;-68
2022/06/25 15:05:49;;;;;;;0.70;0.70;;;28.80;49.10;;;;;;10347282;28;20313;-68
2022/06/25 15:10:50;;;;;;;3.13;0.87;;;28.80;48.40;;;;;;10336667;28;20964;-68
2022/06/25 15:15:51;;;;;;;1.37;0.70;;;29.20;48.00;;;;;;10353031;28;20307;-68
2022/06/25 15:20:52;;;;;;;1.60;0.90;;;29.60;47.20;;;;;;10349012;28;20221;-68
2022/06/25 15:25:52;;;;;;;2.10;1.07;;;29.70;45.50;;;;;;10350409;28;20300;-66
2022/06/25 15:30:53;;;;;;;1.30;0.90;;;29.50;45.90;;;;;;10355126;28;20227;-67
2022/06/25 15:35:55;;;;;;;0.80;0.80;;;29.60;46.60;;;;;;10342411;28;20276;-67
2022/06/25 15:40:56;;;;;;;1.57;0.87;;;29.40;46.80;;;;;;10332726;28;20612;-66
2022/06/25 15:45:59;;;;;;;1.53;0.90;;;29.70;47.40;;;;;;10350612;28;20300;-66
2022/06/25 15:51:00;;;;;;;2.00;0.60;;;30.00;47.70;;;;;;10339927;28;20827;-66
2022/06/25 15:56:01;;;;;;;0.80;0.80;;;30.00;46.90;;;;;;10355316;28;20271;-66
2022/06/25 16:01:01;;;;;;;1.00;0.90;;;29.80;47.10;;;;;;10351391;28;20233;-67
2022/06/25 16:06:05;;;;;;;1.30;0.70;;;29.60;46.60;;;;;;10326497;28;20240;-66
2022/06/25 16:16:25;;;;;;;1.23;1.00;;;29.30;47.70;;;;;;10347689;28;20670;-67
2022/06/25 16:21:26;;;;;;;1.90;1.07;;;29.10;47.00;;;;;;10336683;28;20229;-67
2022/06/25 16:26:27;;;;;;;1.50;0.83;;;29.00;47.40;;;;;;10352830;28;20239;-66
2022/06/25 16:31:27;;;;;;;2.07;1.20;;;28.90;47.10;;;;;;10336233;28;20224;-66
2022/06/25 16:36:28;;;;;;;1.10;0.90;;;28.80;48.20;;;;;;10346537;28;20229;-66
2022/06/25 16:41:28;;;;;;;3.50;1.03;;;28.70;48.60;;;;;;10347128;28;20222;-66
2022/06/25 16:46:42;;;;;;;4.10;0.97;;;28.60;48.80;;;;;;10340259;28;20312;-67
2022/06/25 16:51:45;;;;;;;2.30;0.93;;;28.50;49.40;;;;;;10338644;28;20237;-67
2022/06/25 16:56:48;;;;;;;2.53;1.17;;;28.40;49.10;;;;;;10355007;28;20248;-67
2022/06/25 17:01:50;;;;;;;1.37;0.90;;;28.30;49.10;;;;;;10317950;28;20229;-66
2022/06/25 17:06:53;;;;;;;1.93;1.10;;;28.30;49.10;;;;;;10346419;28;20716;-66
2022/06/25 17:11:54;;;;;;;1.77;0.80;;;28.20;49.10;;;;;;10360290;28;20229;-67
2022/06/25 17:16:58;;;;;;;2.27;1.00;;;28.00;49.50;;;;;;10348223;28;20320;-66
2022/06/25 17:21:58;;;;;;;2.17;1.20;;;27.90;50.00;;;;;;10334821;28;20595;-67
2022/06/25 17:26:59;;;;;;;0.80;0.80;;;27.90;51.20;;;;;;10342609;28;20334;-67
2022/06/25 17:32:00;;;;;;;2.13;0.90;;;27.90;51.70;;;;;;10349212;28;20224;-67
2022/06/25 17:37:00;;;;;;;1.60;1.00;;;27.90;51.50;;;;;;10331023;28;20229;-66
2022/06/25 17:42:02;;;;;;;1.43;1.20;;;27.80;51.90;;;;;;10338768;28;20272;-66
2022/06/25 17:47:03;;;;;;;1.50;1.00;;;27.60;52.10;;;;;;10341639;28;20244;-66
2022/06/25 17:52:04;;;;;;;1.90;0.80;;;27.50;52.40;;;;;;10343888;28;20234;-66
2022/06/25 17:57:05;;;;;;;0.83;0.83;;;27.30;53.00;;;;;;10347593;28;20287;-65
2022/06/25 18:02:06;;;;;;;1.17;1.00;;;27.20;53.30;;;;;;10344639;28;20247;-67
2022/06/25 18:07:07;;;;;;;2.13;1.07;;;27.10;53.90;;;;;;10343443;28;20315;-67
2022/06/25 18:12:08;;;;;;;1.80;1.20;;;26.90;54.10;;;;;;10340207;28;20233;-67
2022/06/25 18:17:09;;;;;;;1.27;1.03;;;26.80;54.50;;;;;;10320745;28;20220;-67
2022/06/25 18:22:09;;;;;;;1.43;1.33;;;26.70;54.60;;;;;;10349992;28;20592;-66
2022/06/25 18:27:10;;;;;;;1.63;1.10;;;26.60;55.20;;;;;;10346913;28;20242;-67
2022/06/25 18:32:11;;;;;;;3.90;2.40;;;26.50;55.60;;;;;;10348085;28;20220;-66
2022/06/25 18:37:11;;;;;;;1.60;1.17;;;26.40;55.40;;;;;;10347292;28;20309;-68
2022/06/25 18:42:12;;;;;;;2.93;1.10;;;26.30;55.80;;;;;;10345554;28;20692;-67
2022/06/25 18:47:13;;;;;;;1.97;1.20;;;26.30;55.70;;;;;;10304782;28;20920;-66
2022/06/25 18:52:17;;;;;;;2.70;1.30;;;26.30;55.80;;;;;;10343292;28;20982;-67
2022/06/25 18:57:18;;;;;;;1.53;1.10;;;26.30;56.30;;;;;;10347293;28;20306;-67
2022/06/25 19:02:18;;;;;;;1.90;1.20;;;26.20;56.70;;;;;;10335999;28;20813;-66
2022/06/25 19:07:19;;;;;;;3.97;1.20;;;26.10;57.40;;;;;;10347296;28;20228;-67
2022/06/25 19:12:20;;;;;;;1.43;1.33;;;26.00;58.00;;;;;;10338426;28;20220;-66
2022/06/25 19:17:20;;;;;;;1.60;1.50;;;25.90;58.50;;;;;;10332091;28;20691;-66
2022/06/25 19:22:21;;;;;;;2.43;1.50;;;25.80;58.90;;;;;;10342637;28;20218;-67
2022/06/25 19:27:22;;;;;;;3.00;1.30;;;25.60;59.60;;;;;;10343279;28;20837;-67
2022/06/25 19:32:22;;;;;;;4.70;1.67;;;25.40;60.00;;;;;;10334498;28;20598;-66
2022/06/25 19:37:23;;;;;;;2.77;2.57;;;25.30;61.30;;;;;;10349182;28;20217;-67
2022/06/25 19:42:24;;;;;;;2.90;2.70;;;25.20;64.00;;;;;;10345508;28;20320;-66
2022/06/25 19:47:24;;;;;;;6.23;2.93;;;25.00;66.60;;;;;;10353890;28;20232;-66
2022/06/25 19:52:25;;;;;;;3.83;2.97;;;24.80;69.00;;;;;;10333925;28;20308;-66
2022/06/25 19:57:26;;;;;;;3.50;2.30;;;24.60;70.20;;;;;;10352509;28;20634;-66
2022/06/25 20:02:26;;;;;;;2.43;2.13;;;24.50;69.50;;;;;;10346217;28;20218;-67
2022/06/25 20:07:27;;;;;;;2.50;2.30;;;24.40;68.10;;;;;;10330808;28;20325;-67
2022/06/25 20:12:27;;;;;;;3.30;2.20;;;24.40;68.40;;;;;;10318983;28;20228;-67
2022/06/25 20:17:31;;;;;;;2.37;1.90;;;24.30;69.30;;;;;;10349842;28;20317;-66
2022/06/25 20:22:32;;;;;;;2.60;1.60;;;24.30;68.00;;;;;;10336889;28;20774;-67
2022/06/25 20:27:32;;;;;;;1.87;1.77;;;24.20;68.50;;;;;;10346931;28;20263;-67
2022/06/25 20:32:34;;;;;;;2.83;2.53;;;24.10;68.90;;;;;;10340563;28;20234;-67
2022/06/25 20:37:35;;;;;;;5.70;3.70;;;24.00;70.50;;;;;;10310941;28;20662;-66
2022/06/25 20:42:37;;;;;;;6.20;2.70;;;23.90;72.00;;;;;;10347209;28;20312;-66
2022/06/25 20:47:37;;;;;;;4.30;2.73;;;23.90;73.00;;;;;;10346525;28;20264;-66
2022/06/25 20:52:39;;;;;;;4.97;2.47;;;23.80;74.60;;;;;;10349304;28;20228;-67
2022/06/25 20:57:42;;;;;;;2.47;2.03;;;23.80;73.50;;;;;;10345315;28;20241;-67
2022/06/25 21:08:05;;;;;;;2.93;1.70;;;23.50;73.00;;;;;;10346434;28;20344;-66
2022/06/25 21:13:07;;;;;;;2.70;1.80;;;23.50;73.00;;;;;;10346789;28;20226;-67
2022/06/25 21:18:08;;;;;;;4.50;1.60;;;23.50;73.40;;;;;;10353892;28;20280;-66
2022/06/25 21:23:10;;;;;;;4.83;1.80;;;23.40;73.90;;;;;;10336727;28;20221;-66
2022/06/25 21:28:11;;;;;;;2.93;2.00;;;23.30;74.20;;;;;;10328916;28;20709;-67
2022/06/25 21:33:12;;;;;;;5.17;1.80;;;23.20;74.60;;;;;;10340827;28;20303;-66
2022/06/25 21:38:12;;;;;;;2.40;1.67;;;23.10;74.90;;;;;;10347965;28;20644;-67
2022/06/25 21:43:13;;;;;;;5.10;2.33;;;23.10;74.50;;;;;;10337074;28;20252;-67
2022/06/25 21:48:13;;;;;;;3.30;2.03;;;23.10;74.70;;;;;;10345000;28;20317;-68
2022/06/25 21:53:14;;;;;;;3.10;2.17;;;23.00;74.80;;;;;;10329225;28;20225;-67
2022/06/25 21:58:15;;;;;;;3.77;2.13;;;23.10;75.20;;;;;;10318214;28;20635;-66
2022/06/25 22:03:16;;;;;;;4.80;2.10;;;23.10;75.20;;;;;;10338058;28;20687;-67
2022/06/25 22:08:17;;;;;;;3.80;2.10;;;23.10;75.10;;;;;;10347895;28;20224;-67
2022/06/25 22:13:17;;;;;;;5.23;2.10;;;23.00;75.50;;;;;;10340595;28;20226;-67
2022/06/25 22:18:20;;;;;;;2.13;1.70;;;23.00;76.10;;;;;;10355894;28;20307;-66
2022/06/25 22:23:23;;;;;;;3.73;1.90;;;22.80;76.60;;;;;;10330523;28;20248;-66
2022/06/25 22:28:24;;;;;;;3.43;1.97;;;22.80;77.30;;;;;;10346207;28;20248;-67
2022/06/25 22:33:26;;;;;;;2.83;1.73;;;22.70;77.20;;;;;;10349430;28;20237;-66
2022/06/25 22:38:27;;;;;;;2.33;1.87;;;22.70;77.40;;;;;;10340569;28;20225;-67
2022/06/25 22:43:27;;;;;;;2.07;1.67;;;22.70;77.80;;;;;;10347862;28;20684;-67
2022/06/25 22:48:28;;;;;;;2.30;1.80;;;22.70;78.00;;;;;;10337510;28;20222;-66
2022/06/25 22:53:28;;;;;;;3.37;1.87;;;22.70;78.10;;;;;;10343439;28;20214;-67
2022/06/25 22:58:29;;;;;;;3.40;1.47;;;22.80;77.50;;;;;;10318096;28;20217;-66
2022/06/25 23:03:29;;;;;;;2.27;1.87;;;22.80;76.60;;;;;;10337232;28;20696;-66
2022/06/25 23:08:30;;;;;;;2.23;1.57;;;22.80;76.10;;;;;;10329536;28;20219;-67
2022/06/25 23:13:31;;;;;;;2.93;1.70;;;22.90;76.60;;;;;;10343930;28;20214;-67
2022/06/25 23:18:31;;;;;;;1.90;1.57;;;22.80;75.50;;;;;;10359386;28;20255;-66
2022/06/25 23:23:32;;;;;;;3.00;1.40;;;22.80;74.90;;;;;;10325972;28;20214;-67
2022/06/25 23:28:33;;;;;;;2.77;1.50;;;22.80;75.20;;;;;;10357804;28;20280;-66
2022/06/25 23:33:33;;;;;;;1.97;1.80;;;22.80;78.00;;;;;;10357092;28;20205;-67
2022/06/25 23:38:34;;;;;;;2.23;2.03;;;22.70;80.50;;;;;;10343555;28;20224;-66
2022/06/25 23:43:34;;;;;;;2.57;2.10;;;22.50;82.20;;;;;;10363331;28;20221;-66
2022/06/25 23:48:35;;;;;;;5.87;2.67;;;22.30;86.40;;;;;;10350760;28;20256;-67
2022/06/25 23:53:36;;;;;;;3.70;2.33;;;22.10;90.20;;;;;;10342612;28;20801;-66
2022/06/25 23:58:36;;;;;;;7.33;2.40;;;21.90;92.60;;;;;;10363192;28;20224;-66
